createdAt,value
2023-05-09T00:11:48.162Z,2.40
2023-05-09T00:15:01.411Z,2.20
2023-05-09T00:21:50.991Z,2.20
2023-05-09T00:24:49.900Z,2.20
2023-05-09T00:31:39.018Z,2.10
2023-05-09T00:38:25.836Z,2.10
2023-05-09T00:49:04.959Z,2.00
2023-05-09T00:55:55.999Z,2.40
2023-05-09T01:02:45.960Z,2.30
2023-05-09T01:20:52.076Z,1.90
2023-05-09T01:23:45.099Z,1.90
2023-05-09T01:26:19.468Z,1.90
2023-05-09T01:29:07.814Z,1.90
2023-05-09T01:31:41.130Z,1.40
2023-05-09T01:34:11.733Z,1.60
2023-05-09T01:36:42.697Z,1.30
2023-05-09T01:39:14.430Z,1.40
2023-05-09T01:41:45.378Z,1.40
2023-05-09T01:44:15.449Z,1.20
2023-05-09T01:46:45.059Z,1.40
2023-05-09T01:49:17.812Z,1.70
2023-05-09T01:51:48.016Z,1.20
2023-05-09T01:54:17.777Z,1.50
2023-05-09T01:56:47.203Z,1.60
2023-05-09T01:59:18.603Z,1.50
2023-05-09T02:01:47.617Z,1.90
2023-05-09T02:04:17.977Z,1.50
2023-05-09T02:06:50.952Z,1.40
2023-05-09T02:09:20.347Z,1.50
2023-05-09T02:11:48.699Z,1.50
2023-05-09T02:14:18.389Z,1.60
2023-05-09T02:16:46.642Z,1.60
2023-05-09T02:19:14.846Z,1.40
2023-05-09T02:21:43.474Z,2.00
2023-05-09T02:24:12.269Z,1.80
2023-05-09T02:26:41.458Z,1.50
2023-05-09T02:29:11.769Z,1.50
2023-05-09T02:31:42.493Z,2.00
2023-05-09T02:34:13.681Z,1.70
2023-05-09T02:36:42.246Z,1.80
2023-05-09T02:39:11.592Z,1.60
2023-05-09T02:41:39.770Z,1.40
2023-05-09T02:44:07.992Z,1.40
2023-05-09T02:46:36.114Z,1.80
2023-05-09T02:49:04.375Z,1.50
2023-05-09T02:51:32.569Z,1.60
2023-05-09T02:54:00.807Z,1.50
2023-05-09T02:56:29.040Z,1.50
2023-05-09T02:58:57.254Z,1.40
2023-05-09T03:01:26.583Z,1.80
2023-05-09T03:03:54.772Z,1.70
2023-05-09T03:06:23.037Z,1.70
2023-05-09T03:08:51.410Z,1.90
2023-05-09T03:11:19.766Z,1.60
2023-05-09T03:16:18.074Z,1.40
2023-05-09T03:18:46.338Z,1.60
2023-05-09T03:21:16.049Z,1.50
2023-05-09T03:23:44.274Z,1.60
2023-05-09T03:26:13.720Z,1.10
2023-05-09T03:28:42.222Z,1.60
2023-05-09T03:31:10.647Z,1.20
2023-05-09T03:33:39.396Z,1.60
2023-05-09T03:36:09.164Z,1.70
2023-05-09T03:38:37.544Z,1.40
2023-05-09T03:41:06.320Z,1.30
2023-05-09T03:43:36.335Z,1.70
2023-05-09T03:46:04.618Z,1.70
2023-05-09T03:48:35.455Z,1.80
2023-05-09T03:51:03.898Z,1.80
2023-05-09T03:53:33.141Z,1.80
2023-05-09T03:58:31.982Z,1.50
2023-05-09T04:01:01.798Z,1.90
2023-05-09T04:03:30.323Z,2.10
2023-05-09T04:08:36.592Z,1.50
2023-05-09T04:11:06.401Z,1.60
2023-05-09T04:13:36.192Z,2.10
2023-05-09T04:16:13.070Z,2.00
2023-05-09T04:18:42.506Z,2.00
2023-05-09T04:21:11.184Z,1.90
2023-05-09T04:23:40.179Z,1.80
2023-05-09T04:26:11.017Z,2.20
2023-05-09T04:28:39.749Z,1.90
2023-05-09T04:31:09.070Z,1.60
2023-05-09T04:33:39.362Z,1.50
2023-05-09T04:36:07.984Z,1.20
2023-05-09T04:38:38.133Z,1.40
2023-05-09T04:41:12.253Z,1.50
2023-05-09T04:44:00.192Z,1.70
2023-05-09T04:46:29.294Z,2.00
2023-05-09T04:48:58.943Z,1.40
2023-05-09T04:51:35.484Z,1.30
2023-05-09T04:54:17.693Z,1.60
2023-05-09T04:56:50.043Z,2.00
2023-05-09T05:09:47.596Z,2.50
2023-05-09T05:24:56.251Z,1.80
2023-05-09T05:30:54.825Z,1.40
2023-05-09T05:33:24.759Z,1.70
2023-05-09T05:35:54.350Z,1.50
2023-05-09T05:39:37.270Z,1.40
2023-05-09T05:42:11.243Z,1.50
2023-05-09T05:45:07.121Z,1.70
2023-05-09T05:48:03.949Z,1.40
2023-05-09T05:53:56.796Z,1.40
2023-05-09T05:56:26.599Z,1.40
2023-05-09T05:59:02.299Z,1.50
2023-05-09T06:18:56.272Z,1.30
2023-05-09T06:25:57.360Z,1.30
2023-05-09T06:28:26.510Z,1.30
2023-05-09T06:31:31.731Z,1.50
2023-05-09T06:34:22.432Z,1.70
2023-05-09T06:37:12.225Z,1.70
2023-05-09T06:39:48.122Z,1.50
2023-05-09T06:43:04.116Z,1.70
2023-05-09T06:54:41.551Z,1.50
2023-05-09T06:57:08.594Z,1.70
2023-05-09T06:59:37.277Z,1.70
2023-05-09T07:02:06.747Z,1.70
2023-05-09T07:04:34.751Z,1.40
2023-05-09T07:07:18.304Z,1.60
2023-05-09T07:09:46.832Z,1.50
2023-05-09T07:12:40.808Z,1.50
2023-05-09T07:15:08.846Z,1.50
2023-05-09T07:17:37.292Z,1.30
2023-05-09T07:20:10.465Z,1.40
2023-05-09T07:22:39.084Z,1.30
2023-05-09T07:25:09.494Z,1.40
2023-05-09T07:27:42.507Z,1.40
2023-05-09T07:30:10.451Z,1.50
2023-05-09T07:32:37.659Z,1.40
2023-05-09T07:35:12.391Z,1.50
2023-05-09T07:43:59.738Z,1.40
2023-05-09T07:46:30.243Z,1.60
2023-05-09T07:50:04.370Z,1.40
2023-05-09T08:03:24.182Z,1.00
2023-05-09T08:05:59.068Z,1.30
2023-05-09T08:13:36.098Z,2.30
2023-05-09T08:32:57.045Z,1.40
2023-05-09T08:35:25.932Z,1.60
2023-05-09T08:37:53.245Z,1.40
2023-05-09T08:40:21.791Z,1.70
2023-05-09T08:51:55.040Z,1.90
2023-05-09T08:54:27.164Z,2.20
2023-05-09T08:56:55.102Z,1.80
2023-05-09T08:59:22.429Z,2.10
2023-05-09T09:01:51.638Z,2.10
2023-05-09T09:04:19.100Z,2.50
2023-05-09T09:06:46.855Z,2.20
2023-05-09T09:09:15.234Z,2.60
2023-05-09T09:14:19.791Z,2.10
2023-05-09T09:16:52.676Z,2.00
2023-05-09T09:19:22.074Z,2.00
2023-05-09T09:21:54.536Z,2.10
2023-05-09T09:24:22.772Z,2.40
2023-05-09T09:26:51.599Z,2.20
2023-05-09T09:29:20.611Z,2.10
2023-05-09T09:32:34.550Z,2.40
2023-05-09T09:35:39.183Z,2.00
2023-05-09T09:38:08.007Z,2.80
2023-05-09T09:45:35.739Z,2.20
2023-05-09T09:48:39.157Z,2.60
2023-05-09T09:51:14.510Z,2.40
2023-05-09T09:53:42.835Z,2.30
2023-05-09T09:57:21.190Z,2.30
2023-05-09T10:00:06.354Z,2.50
2023-05-09T10:02:34.432Z,2.80
2023-05-09T10:05:08.960Z,2.90
2023-05-09T10:07:35.983Z,2.50
2023-05-09T10:10:05.739Z,2.90
2023-05-09T10:12:36.587Z,2.80
2023-05-09T10:15:07.905Z,2.70
2023-05-09T10:17:36.236Z,2.60
2023-05-09T10:20:06.393Z,2.20
2023-05-09T10:22:36.028Z,2.50
2023-05-09T10:28:19.182Z,3.10
2023-05-09T10:31:42.828Z,3.00
2023-05-09T10:34:12.596Z,3.00
2023-05-09T10:36:41.806Z,3.20
2023-05-09T10:39:09.411Z,2.70
2023-05-09T10:41:42.033Z,3.00
2023-05-09T10:44:14.638Z,3.20
2023-05-09T10:51:32.814Z,3.10
2023-05-09T10:54:00.035Z,2.70
2023-05-09T10:56:35.976Z,2.90
2023-05-09T10:59:03.005Z,3.10
2023-05-09T11:01:34.228Z,3.30
2023-05-09T11:04:08.452Z,3.30
2023-05-09T11:06:46.003Z,3.00
2023-05-09T11:13:45.856Z,2.50
2023-05-09T11:16:22.016Z,2.50
2023-05-09T11:23:11.244Z,2.80
2023-05-09T11:38:43.136Z,2.20
2023-05-09T11:41:12.310Z,2.20
2023-05-09T11:43:45.997Z,2.70
2023-05-09T11:46:18.600Z,2.30
2023-05-09T11:48:49.681Z,2.10
2023-05-09T11:51:19.284Z,2.30
2023-05-09T11:53:54.279Z,2.00
2023-05-09T11:56:24.253Z,2.30
2023-05-09T11:58:53.108Z,2.00
2023-05-09T12:01:31.283Z,2.50
2023-05-09T12:05:13.607Z,2.40
2023-05-09T12:07:45.385Z,2.50
2023-05-09T12:17:22.329Z,2.10
2023-05-09T12:46:26.956Z,2.60
2023-05-09T12:49:17.119Z,2.40
2023-05-09T12:52:50.176Z,2.50
2023-05-09T13:02:08.036Z,2.70
2023-05-09T13:04:37.711Z,2.90
2023-05-09T13:10:53.672Z,2.70
2023-05-09T13:25:52.214Z,3.70
2023-05-09T13:32:19.867Z,2.90
2023-05-09T13:35:47.146Z,2.80
2023-05-09T13:55:49.218Z,3.00
2023-05-09T14:02:38.117Z,3.00
2023-05-09T14:05:34.336Z,2.90
2023-05-09T14:22:02.232Z,2.90
2023-05-09T14:28:11.485Z,3.00
2023-05-09T14:30:45.118Z,2.70
2023-05-09T14:33:32.327Z,3.30
2023-05-09T14:40:47.601Z,3.00
2023-05-09T14:43:36.825Z,3.00
2023-05-09T14:46:31.600Z,3.30
2023-05-09T14:53:42.394Z,3.10
2023-05-09T14:56:20.144Z,3.50
2023-05-09T14:58:58.020Z,3.50
2023-05-09T15:02:23.767Z,3.40
2023-05-09T15:04:55.482Z,3.00
2023-05-09T15:07:26.299Z,3.10
2023-05-09T15:09:53.305Z,3.00
2023-05-09T15:12:20.307Z,3.00
2023-05-09T15:14:47.361Z,2.70
2023-05-09T15:17:57.094Z,3.50
2023-05-09T15:21:00.728Z,3.40
2023-05-09T15:30:00.614Z,3.30
2023-05-09T15:32:49.780Z,2.90
2023-05-09T15:35:19.272Z,2.70
2023-05-09T15:41:50.297Z,3.70
2023-05-09T15:44:22.418Z,3.50
2023-05-09T15:46:57.819Z,3.50
2023-05-09T15:49:25.427Z,3.00
2023-05-09T15:51:53.101Z,3.80
2023-05-09T15:54:32.763Z,3.00
2023-05-09T15:57:13.264Z,3.20
2023-05-09T15:59:58.848Z,3.60
2023-05-09T16:02:25.727Z,2.90
2023-05-09T16:04:52.735Z,3.40
2023-05-09T16:07:20.008Z,3.70
2023-05-09T16:09:47.201Z,3.20
2023-05-09T16:12:14.571Z,3.70
2023-05-09T16:14:41.872Z,3.10
2023-05-09T16:17:08.785Z,3.50
2023-05-09T16:19:36.314Z,3.60
2023-05-09T16:22:04.411Z,3.40
2023-05-09T16:24:31.395Z,3.70
2023-05-09T16:26:58.292Z,3.60
2023-05-09T16:29:26.845Z,3.50
2023-05-09T16:31:54.634Z,4.30
2023-05-09T16:34:22.959Z,4.50
2023-05-09T16:39:16.952Z,5.40
2023-05-09T16:41:43.790Z,5.70
2023-05-09T16:44:10.686Z,4.50
2023-05-09T16:46:37.603Z,5.40
2023-05-09T16:49:04.530Z,6.70
2023-05-09T16:51:33.508Z,5.60
2023-05-09T16:54:01.405Z,4.90
2023-05-09T16:56:29.958Z,6.00
2023-05-09T16:59:01.974Z,5.00
2023-05-09T17:01:37.145Z,5.60
2023-05-09T17:04:06.237Z,4.90
2023-05-09T17:06:33.754Z,4.90
2023-05-09T17:09:02.367Z,5.50
2023-05-09T17:12:15.238Z,6.10
2023-05-09T17:25:36.563Z,6.40
2023-05-09T17:39:53.246Z,7.00
2023-05-09T17:42:22.745Z,7.40
2023-05-09T17:44:57.051Z,7.80
2023-05-09T17:47:35.738Z,7.70
2023-05-09T17:50:10.040Z,6.90
2023-05-09T17:52:42.404Z,6.80
2023-05-09T17:55:11.965Z,6.90
2023-05-09T17:57:43.584Z,6.50
2023-05-09T18:00:18.579Z,6.50
2023-05-09T18:02:51.161Z,6.70
2023-05-09T18:05:19.789Z,6.50
2023-05-09T18:07:49.439Z,7.30
2023-05-09T18:18:55.830Z,8.90
2023-05-09T18:21:46.261Z,7.40
2023-05-09T18:28:39.511Z,6.90
2023-05-09T18:31:26.145Z,6.60
2023-05-09T18:42:30.490Z,6.50
2023-05-09T18:53:31.565Z,6.40
2023-05-09T19:28:33.332Z,7.80
2023-05-09T20:11:18.814Z,6.50
2023-05-09T20:18:07.291Z,6.80
2023-05-09T20:21:15.726Z,6.60
2023-05-09T20:31:06.793Z,6.70
2023-05-09T20:33:40.228Z,6.60
2023-05-09T20:36:11.840Z,6.50
2023-05-09T20:38:41.442Z,6.70
2023-05-09T20:41:10.913Z,6.50
2023-05-09T20:44:09.570Z,7.00
2023-05-09T20:53:38.618Z,6.70
2023-05-09T20:56:10.219Z,6.80
2023-05-09T20:58:41.533Z,7.30
2023-05-09T21:01:24.645Z,7.00
2023-05-09T21:03:52.974Z,7.20
2023-05-09T21:06:21.596Z,6.80
2023-05-09T21:16:32.126Z,7.60
2023-05-09T21:31:19.302Z,6.10
2023-05-09T21:34:10.374Z,6.80
2023-05-09T21:37:06.117Z,6.90
2023-05-09T21:39:37.372Z,6.10
2023-05-09T21:42:07.397Z,7.10
2023-05-09T21:44:40.177Z,6.10
2023-05-09T21:47:21.120Z,6.90
2023-05-09T21:49:49.667Z,6.30
2023-05-09T21:52:39.123Z,6.40
2023-05-09T21:55:10.194Z,6.30
2023-05-09T21:57:41.265Z,6.20
2023-05-09T22:00:17.741Z,6.20
2023-05-09T22:02:47.781Z,6.50
2023-05-09T22:05:16.962Z,6.10
2023-05-09T22:07:53.221Z,5.70
2023-05-09T22:10:21.332Z,7.00
2023-05-09T22:12:49.610Z,6.70
2023-05-09T22:15:17.792Z,7.00
2023-05-09T22:17:47.377Z,6.70
2023-05-09T22:20:15.697Z,7.20
2023-05-09T22:22:44.207Z,6.40
2023-05-09T22:25:12.389Z,6.40
2023-05-09T22:27:42.747Z,6.80
2023-05-09T22:30:12.664Z,6.40
2023-05-09T22:32:41.036Z,6.80
2023-05-09T22:35:09.466Z,7.10
2023-05-09T22:37:37.789Z,7.40
2023-05-09T22:40:06.827Z,8.10
2023-05-09T22:42:35.567Z,7.10
2023-05-09T22:45:08.811Z,7.60
2023-05-09T22:47:38.435Z,7.10
2023-05-09T22:50:07.937Z,7.80
2023-05-09T22:52:35.974Z,7.10
2023-05-09T22:55:04.488Z,7.90
2023-05-09T23:00:00.717Z,7.90
2023-05-09T23:02:28.886Z,7.80
2023-05-09T23:04:57.568Z,7.60
2023-05-09T23:09:54.403Z,7.50
2023-05-09T23:12:22.670Z,7.10
2023-05-09T23:14:50.900Z,7.10
2023-05-09T23:17:20.474Z,7.50
2023-05-09T23:19:49.141Z,7.90
2023-05-09T23:22:17.783Z,8.30
2023-05-09T23:30:58.738Z,7.20
2023-05-09T23:33:26.941Z,7.40
2023-05-09T23:35:57.099Z,7.20
2023-05-09T23:44:47.010Z,8.10
2023-05-09T23:47:15.220Z,7.30
2023-05-09T23:49:44.399Z,7.90
2023-05-09T23:52:13.234Z,8.10
2023-05-09T23:54:41.462Z,7.70
2023-05-09T23:59:38.090Z,8.60
